sensor_id;sensor_type;location;lat;lon;timestamp;P1;durP1;ratioP1;P2;durP2;ratioP2
20287;SDS011;10303;51.960;8.372;2023-07-31T00:00:38;0.57;;;0.50;;
20287;SDS011;10303;51.960;8.372;2023-07-31T00:03:04;0.90;;;0.50;;
20287;SDS011;10303;51.960;8.372;2023-07-31T00:05:30;0.50;;;0.50;;
20287;SDS011;10303;51.960;8.372;2023-07-31T00:07:56;0.40;;;0.40;;
20287;SDS011;10303;51.960;8.372;2023-07-31T00:10:22;0.50;;;0.50;;
20287;SDS011;10303;51.960;8.372;2023-07-31T00:12:48;0.40;;;0.40;;
20287;SDS011;10303;51.960;8.372;2023-07-31T00:15:14;1.00;;;0.53;;
20287;SDS011;10303;51.960;8.372;2023-07-31T00:17:40;0.50;;;0.50;;
20287;SDS011;10303;51.960;8.372;2023-07-31T00:20:06;2.63;;;0.50;;
20287;SDS011;10303;51.960;8.372;2023-07-31T00:22:33;0.70;;;0.40;;
20287;SDS011;10303;51.960;8.372;2023-07-31T00:24:59;0.70;;;0.53;;
20287;SDS011;10303;51.960;8.372;2023-07-31T00:27:25;0.70;;;0.70;;
20287;SDS011;10303;51.960;8.372;2023-07-31T00:29:51;0.80;;;0.60;;
20287;SDS011;10303;51.960;8.372;2023-07-31T00:32:17;0.70;;;0.53;;
20287;SDS011;10303;51.960;8.372;2023-07-31T00:34:43;1.60;;;0.57;;
20287;SDS011;10303;51.960;8.372;2023-07-31T00:37:09;0.60;;;0.60;;
20287;SDS011;10303;51.960;8.372;2023-07-31T00:39:35;0.60;;;0.60;;
20287;SDS011;10303;51.960;8.372;2023-07-31T00:42:01;0.47;;;0.47;;
20287;SDS011;10303;51.960;8.372;2023-07-31T00:44:28;0.80;;;0.80;;
20287;SDS011;10303;51.960;8.372;2023-07-31T00:46:54;0.50;;;0.50;;
20287;SDS011;10303;51.960;8.372;2023-07-31T00:49:22;0.67;;;0.60;;
20287;SDS011;10303;51.960;8.372;2023-07-31T00:51:48;0.60;;;0.60;;
20287;SDS011;10303;51.960;8.372;2023-07-31T00:54:14;0.60;;;0.60;;
20287;SDS011;10303;51.960;8.372;2023-07-31T00:56:41;0.50;;;0.40;;
20287;SDS011;10303;51.960;8.372;2023-07-31T00:59:10;0.50;;;0.50;;
20287;SDS011;10303;51.960;8.372;2023-07-31T01:01:37;0.50;;;0.50;;
20287;SDS011;10303;51.960;8.372;2023-07-31T01:04:03;0.60;;;0.60;;
20287;SDS011;10303;51.960;8.372;2023-07-31T01:09:07;0.60;;;0.60;;
20287;SDS011;10303;51.960;8.372;2023-07-31T01:12:00;0.60;;;0.60;;
20287;SDS011;10303;51.960;8.372;2023-07-31T01:14:29;1.50;;;0.77;;
20287;SDS011;10303;51.960;8.372;2023-07-31T01:16:55;0.90;;;0.70;;
20287;SDS011;10303;51.960;8.372;2023-07-31T01:19:22;1.30;;;1.20;;
20287;SDS011;10303;51.960;8.372;2023-07-31T01:27:53;1.33;;;0.77;;
20287;SDS011;10303;51.960;8.372;2023-07-31T01:30:34;0.87;;;0.63;;
20287;SDS011;10303;51.960;8.372;2023-07-31T01:33:08;2.33;;;1.07;;
20287;SDS011;10303;51.960;8.372;2023-07-31T01:35:35;0.73;;;0.70;;
20287;SDS011;10303;51.960;8.372;2023-07-31T01:38:03;1.13;;;0.83;;
20287;SDS011;10303;51.960;8.372;2023-07-31T01:40:30;0.83;;;0.60;;
20287;SDS011;10303;51.960;8.372;2023-07-31T01:42:56;0.60;;;0.60;;
20287;SDS011;10303;51.960;8.372;2023-07-31T01:45:22;0.40;;;0.40;;
20287;SDS011;10303;51.960;8.372;2023-07-31T01:47:48;0.90;;;0.70;;
20287;SDS011;10303;51.960;8.372;2023-07-31T01:50:15;0.57;;;0.53;;
20287;SDS011;10303;51.960;8.372;2023-07-31T01:52:41;0.67;;;0.67;;
20287;SDS011;10303;51.960;8.372;2023-07-31T01:55:07;0.87;;;0.60;;
20287;SDS011;10303;51.960;8.372;2023-07-31T01:57:36;0.97;;;0.60;;
20287;SDS011;10303;51.960;8.372;2023-07-31T02:00:03;1.00;;;0.87;;
20287;SDS011;10303;51.960;8.372;2023-07-31T02:02:37;0.60;;;0.50;;
20287;SDS011;10303;51.960;8.372;2023-07-31T02:05:03;0.77;;;0.70;;
20287;SDS011;10303;51.960;8.372;2023-07-31T02:07:31;1.20;;;0.77;;
20287;SDS011;10303;51.960;8.372;2023-07-31T02:09:57;0.80;;;0.80;;
20287;SDS011;10303;51.960;8.372;2023-07-31T02:12:23;1.20;;;0.90;;
20287;SDS011;10303;51.960;8.372;2023-07-31T02:14:49;1.10;;;0.67;;
20287;SDS011;10303;51.960;8.372;2023-07-31T02:17:15;0.63;;;0.63;;
20287;SDS011;10303;51.960;8.372;2023-07-31T02:19:41;0.83;;;0.70;;
20287;SDS011;10303;51.960;8.372;2023-07-31T02:22:07;0.93;;;0.70;;
20287;SDS011;10303;51.960;8.372;2023-07-31T02:24:33;0.83;;;0.83;;
20287;SDS011;10303;51.960;8.372;2023-07-31T02:26:59;1.17;;;0.80;;
20287;SDS011;10303;51.960;8.372;2023-07-31T02:29:25;0.77;;;0.77;;
20287;SDS011;10303;51.960;8.372;2023-07-31T02:31:51;0.50;;;0.50;;
20287;SDS011;10303;51.960;8.372;2023-07-31T02:34:17;0.50;;;0.50;;
20287;SDS011;10303;51.960;8.372;2023-07-31T02:36:45;0.67;;;0.53;;
20287;SDS011;10303;51.960;8.372;2023-07-31T02:39:11;0.80;;;0.60;;
20287;SDS011;10303;51.960;8.372;2023-07-31T02:41:37;0.40;;;0.40;;
20287;SDS011;10303;51.960;8.372;2023-07-31T02:44:03;0.53;;;0.50;;
20287;SDS011;10303;51.960;8.372;2023-07-31T02:46:29;0.97;;;0.57;;
20287;SDS011;10303;51.960;8.372;2023-07-31T02:48:55;0.50;;;0.50;;
20287;SDS011;10303;51.960;8.372;2023-07-31T02:51:21;2.10;;;0.60;;
20287;SDS011;10303;51.960;8.372;2023-07-31T02:53:47;0.97;;;0.70;;
20287;SDS011;10303;51.960;8.372;2023-07-31T02:56:13;0.60;;;0.47;;
20287;SDS011;10303;51.960;8.372;2023-07-31T02:58:39;0.77;;;0.73;;
20287;SDS011;10303;51.960;8.372;2023-07-31T03:01:05;6.73;;;1.10;;
20287;SDS011;10303;51.960;8.372;2023-07-31T03:03:31;0.87;;;0.77;;
20287;SDS011;10303;51.960;8.372;2023-07-31T03:05:57;1.53;;;1.43;;
20287;SDS011;10303;51.960;8.372;2023-07-31T03:08:23;1.90;;;1.70;;
20287;SDS011;10303;51.960;8.372;2023-07-31T03:10:49;1.90;;;1.80;;
20287;SDS011;10303;51.960;8.372;2023-07-31T03:13:15;2.60;;;1.87;;
20287;SDS011;10303;51.960;8.372;2023-07-31T03:15:42;7.03;;;3.57;;
20287;SDS011;10303;51.960;8.372;2023-07-31T03:18:08;4.50;;;3.50;;
20287;SDS011;10303;51.960;8.372;2023-07-31T03:20:35;4.43;;;3.50;;
20287;SDS011;10303;51.960;8.372;2023-07-31T03:23:01;5.33;;;4.20;;
20287;SDS011;10303;51.960;8.372;2023-07-31T03:25:27;6.13;;;3.93;;
20287;SDS011;10303;51.960;8.372;2023-07-31T03:27:53;5.20;;;4.30;;
20287;SDS011;10303;51.960;8.372;2023-07-31T03:30:19;5.63;;;4.17;;
20287;SDS011;10303;51.960;8.372;2023-07-31T03:32:45;7.40;;;5.13;;
20287;SDS011;10303;51.960;8.372;2023-07-31T03:35:11;6.40;;;4.40;;
20287;SDS011;10303;51.960;8.372;2023-07-31T03:37:37;5.37;;;4.33;;
20287;SDS011;10303;51.960;8.372;2023-07-31T03:40:03;4.73;;;4.17;;
20287;SDS011;10303;51.960;8.372;2023-07-31T03:42:30;7.00;;;5.13;;
20287;SDS011;10303;51.960;8.372;2023-07-31T03:44:56;7.93;;;3.93;;
20287;SDS011;10303;51.960;8.372;2023-07-31T03:47:22;4.93;;;4.47;;
20287;SDS011;10303;51.960;8.372;2023-07-31T03:49:48;6.10;;;4.27;;
20287;SDS011;10303;51.960;8.372;2023-07-31T03:52:15;4.13;;;3.73;;
20287;SDS011;10303;51.960;8.372;2023-07-31T03:54:42;7.80;;;4.40;;
20287;SDS011;10303;51.960;8.372;2023-07-31T03:57:10;4.60;;;4.20;;
20287;SDS011;10303;51.960;8.372;2023-07-31T03:59:36;5.33;;;4.30;;
20287;SDS011;10303;51.960;8.372;2023-07-31T04:02:04;6.80;;;5.07;;
20287;SDS011;10303;51.960;8.372;2023-07-31T04:04:30;5.80;;;4.43;;
20287;SDS011;10303;51.960;8.372;2023-07-31T04:06:56;5.83;;;3.90;;
20287;SDS011;10303;51.960;8.372;2023-07-31T04:09:22;6.10;;;3.90;;
20287;SDS011;10303;51.960;8.372;2023-07-31T04:11:48;5.63;;;3.93;;
20287;SDS011;10303;51.960;8.372;2023-07-31T04:14:14;7.40;;;4.27;;
20287;SDS011;10303;51.960;8.372;2023-07-31T04:16:40;8.53;;;4.67;;
20287;SDS011;10303;51.960;8.372;2023-07-31T04:19:06;4.53;;;4.13;;
20287;SDS011;10303;51.960;8.372;2023-07-31T04:21:32;7.37;;;3.87;;
20287;SDS011;10303;51.960;8.372;2023-07-31T04:23:58;4.87;;;3.73;;
20287;SDS011;10303;51.960;8.372;2023-07-31T04:26:24;3.90;;;3.53;;
20287;SDS011;10303;51.960;8.372;2023-07-31T04:28:50;5.87;;;3.83;;
20287;SDS011;10303;51.960;8.372;2023-07-31T04:31:16;6.60;;;4.10;;
20287;SDS011;10303;51.960;8.372;2023-07-31T04:33:42;5.77;;;4.03;;
20287;SDS011;10303;51.960;8.372;2023-07-31T04:36:07;6.40;;;4.03;;
20287;SDS011;10303;51.960;8.372;2023-07-31T04:38:34;7.67;;;4.43;;
20287;SDS011;10303;51.960;8.372;2023-07-31T04:41:00;5.93;;;4.67;;
20287;SDS011;10303;51.960;8.372;2023-07-31T04:43:26;7.23;;;4.23;;
20287;SDS011;10303;51.960;8.372;2023-07-31T04:45:52;4.07;;;3.40;;
20287;SDS011;10303;51.960;8.372;2023-07-31T04:48:19;9.13;;;3.90;;
20287;SDS011;10303;51.960;8.372;2023-07-31T04:50:45;7.67;;;4.33;;
20287;SDS011;10303;51.960;8.372;2023-07-31T04:53:11;9.57;;;4.33;;
20287;SDS011;10303;51.960;8.372;2023-07-31T04:55:37;4.23;;;3.47;;
20287;SDS011;10303;51.960;8.372;2023-07-31T04:58:03;3.97;;;3.20;;
20287;SDS011;10303;51.960;8.372;2023-07-31T05:00:29;4.47;;;3.73;;
20287;SDS011;10303;51.960;8.372;2023-07-31T05:02:55;8.53;;;3.80;;
20287;SDS011;10303;51.960;8.372;2023-07-31T05:05:21;6.70;;;3.13;;
20287;SDS011;10303;51.960;8.372;2023-07-31T05:07:47;4.83;;;3.13;;
20287;SDS011;10303;51.960;8.372;2023-07-31T05:10:13;7.30;;;3.23;;
20287;SDS011;10303;51.960;8.372;2023-07-31T05:12:39;8.33;;;3.40;;
20287;SDS011;10303;51.960;8.372;2023-07-31T05:15:05;5.00;;;3.90;;
20287;SDS011;10303;51.960;8.372;2023-07-31T05:17:32;4.53;;;2.83;;
20287;SDS011;10303;51.960;8.372;2023-07-31T05:19:58;3.43;;;2.87;;
20287;SDS011;10303;51.960;8.372;2023-07-31T05:22:24;6.53;;;3.43;;
20287;SDS011;10303;51.960;8.372;2023-07-31T05:24:50;4.63;;;2.90;;
20287;SDS011;10303;51.960;8.372;2023-07-31T05:27:16;4.63;;;2.47;;
20287;SDS011;10303;51.960;8.372;2023-07-31T05:29:44;7.23;;;3.37;;
20287;SDS011;10303;51.960;8.372;2023-07-31T05:32:10;4.67;;;3.20;;
20287;SDS011;10303;51.960;8.372;2023-07-31T05:34:36;2.40;;;2.20;;
20287;SDS011;10303;51.960;8.372;2023-07-31T05:37:03;3.03;;;2.63;;
20287;SDS011;10303;51.960;8.372;2023-07-31T05:39:31;6.53;;;2.80;;
20287;SDS011;10303;51.960;8.372;2023-07-31T05:41:57;5.37;;;2.47;;
20287;SDS011;10303;51.960;8.372;2023-07-31T05:44:23;6.67;;;3.40;;
20287;SDS011;10303;51.960;8.372;2023-07-31T05:46:49;5.13;;;2.67;;
20287;SDS011;10303;51.960;8.372;2023-07-31T05:49:15;4.53;;;2.80;;
20287;SDS011;10303;51.960;8.372;2023-07-31T05:51:41;2.83;;;2.30;;
20287;SDS011;10303;51.960;8.372;2023-07-31T05:54:06;8.03;;;2.77;;
20287;SDS011;10303;51.960;8.372;2023-07-31T05:56:32;6.60;;;3.00;;
20287;SDS011;10303;51.960;8.372;2023-07-31T05:58:59;5.73;;;3.10;;
20287;SDS011;10303;51.960;8.372;2023-07-31T06:01:25;3.73;;;2.73;;
20287;SDS011;10303;51.960;8.372;2023-07-31T06:03:51;8.23;;;4.00;;
20287;SDS011;10303;51.960;8.372;2023-07-31T06:06:17;4.50;;;2.97;;
20287;SDS011;10303;51.960;8.372;2023-07-31T06:08:43;6.50;;;2.40;;
20287;SDS011;10303;51.960;8.372;2023-07-31T06:11:09;6.70;;;2.93;;
20287;SDS011;10303;51.960;8.372;2023-07-31T06:13:35;3.53;;;2.43;;
20287;SDS011;10303;51.960;8.372;2023-07-31T06:16:01;6.10;;;2.73;;
20287;SDS011;10303;51.960;8.372;2023-07-31T06:18:31;5.47;;;3.03;;
20287;SDS011;10303;51.960;8.372;2023-07-31T06:20:59;3.83;;;2.63;;
20287;SDS011;10303;51.960;8.372;2023-07-31T06:23:26;3.23;;;2.10;;
20287;SDS011;10303;51.960;8.372;2023-07-31T06:25:52;3.57;;;2.50;;
20287;SDS011;10303;51.960;8.372;2023-07-31T06:28:18;5.47;;;2.53;;
20287;SDS011;10303;51.960;8.372;2023-07-31T06:30:44;7.40;;;3.67;;
20287;SDS011;10303;51.960;8.372;2023-07-31T06:33:10;5.80;;;2.80;;
20287;SDS011;10303;51.960;8.372;2023-07-31T06:35:36;3.83;;;2.40;;
20287;SDS011;10303;51.960;8.372;2023-07-31T06:38:02;3.03;;;2.53;;
20287;SDS011;10303;51.960;8.372;2023-07-31T06:40:28;3.67;;;2.30;;
20287;SDS011;10303;51.960;8.372;2023-07-31T06:42:55;4.00;;;1.93;;
20287;SDS011;10303;51.960;8.372;2023-07-31T06:45:21;4.97;;;2.33;;
20287;SDS011;10303;51.960;8.372;2023-07-31T06:47:47;5.73;;;2.10;;
20287;SDS011;10303;51.960;8.372;2023-07-31T06:50:13;3.83;;;2.00;;
20287;SDS011;10303;51.960;8.372;2023-07-31T06:52:39;4.30;;;2.40;;
20287;SDS011;10303;51.960;8.372;2023-07-31T06:55:23;2.10;;;1.90;;
20287;SDS011;10303;51.960;8.372;2023-07-31T06:57:51;4.70;;;1.73;;
20287;SDS011;10303;51.960;8.372;2023-07-31T07:00:19;3.87;;;1.90;;
20287;SDS011;10303;51.960;8.372;2023-07-31T07:02:47;2.47;;;2.17;;
20287;SDS011;10303;51.960;8.372;2023-07-31T07:05:14;3.80;;;2.30;;
20287;SDS011;10303;51.960;8.372;2023-07-31T07:07:41;5.67;;;2.40;;
20287;SDS011;10303;51.960;8.372;2023-07-31T07:10:08;4.10;;;2.27;;
20287;SDS011;10303;51.960;8.372;2023-07-31T07:12:35;2.77;;;2.57;;
20287;SDS011;10303;51.960;8.372;2023-07-31T07:15:02;3.50;;;1.93;;
20287;SDS011;10303;51.960;8.372;2023-07-31T07:17:29;2.53;;;2.33;;
20287;SDS011;10303;51.960;8.372;2023-07-31T07:19:59;5.80;;;2.57;;
20287;SDS011;10303;51.960;8.372;2023-07-31T07:22:26;4.00;;;2.37;;
20287;SDS011;10303;51.960;8.372;2023-07-31T07:24:52;5.73;;;2.40;;
20287;SDS011;10303;51.960;8.372;2023-07-31T07:27:19;4.50;;;2.57;;
20287;SDS011;10303;51.960;8.372;2023-07-31T07:29:45;3.43;;;2.33;;
20287;SDS011;10303;51.960;8.372;2023-07-31T07:32:12;3.70;;;2.43;;
20287;SDS011;10303;51.960;8.372;2023-07-31T07:34:38;3.47;;;2.83;;
20287;SDS011;10303;51.960;8.372;2023-07-31T07:37:04;4.87;;;2.57;;
20287;SDS011;10303;51.960;8.372;2023-07-31T07:39:31;3.13;;;2.63;;
20287;SDS011;10303;51.960;8.372;2023-07-31T07:41:57;2.00;;;1.80;;
20287;SDS011;10303;51.960;8.372;2023-07-31T07:44:23;3.20;;;1.93;;
20287;SDS011;10303;51.960;8.372;2023-07-31T07:46:49;3.37;;;2.03;;
20287;SDS011;10303;51.960;8.372;2023-07-31T07:49:15;2.03;;;1.73;;
20287;SDS011;10303;51.960;8.372;2023-07-31T07:51:41;1.60;;;1.50;;
20287;SDS011;10303;51.960;8.372;2023-07-31T07:54:07;3.27;;;1.70;;
20287;SDS011;10303;51.960;8.372;2023-07-31T07:56:33;2.40;;;2.20;;
20287;SDS011;10303;51.960;8.372;2023-07-31T07:59:01;2.40;;;1.70;;
20287;SDS011;10303;51.960;8.372;2023-07-31T08:01:27;5.43;;;1.63;;
20287;SDS011;10303;51.960;8.372;2023-07-31T08:03:53;1.50;;;1.40;;
20287;SDS011;10303;51.960;8.372;2023-07-31T08:06:19;2.10;;;1.67;;
20287;SDS011;10303;51.960;8.372;2023-07-31T08:08:45;2.27;;;1.20;;
20287;SDS011;10303;51.960;8.372;2023-07-31T08:11:11;2.47;;;1.73;;
20287;SDS011;10303;51.960;8.372;2023-07-31T08:13:37;3.13;;;1.80;;
20287;SDS011;10303;51.960;8.372;2023-07-31T08:16:03;2.23;;;1.93;;
20287;SDS011;10303;51.960;8.372;2023-07-31T08:18:30;1.73;;;1.63;;
20287;SDS011;10303;51.960;8.372;2023-07-31T08:20:57;2.60;;;2.17;;
20287;SDS011;10303;51.960;8.372;2023-07-31T08:23:24;3.23;;;2.13;;
20287;SDS011;10303;51.960;8.372;2023-07-31T08:25:50;2.43;;;1.90;;
20287;SDS011;10303;51.960;8.372;2023-07-31T08:28:16;2.57;;;1.93;;
20287;SDS011;10303;51.960;8.372;2023-07-31T08:30:42;2.80;;;1.80;;
20287;SDS011;10303;51.960;8.372;2023-07-31T08:33:08;2.83;;;1.83;;
20287;SDS011;10303;51.960;8.372;2023-07-31T08:35:34;1.90;;;1.80;;
20287;SDS011;10303;51.960;8.372;2023-07-31T08:38:00;3.60;;;2.47;;
20287;SDS011;10303;51.960;8.372;2023-07-31T08:40:26;2.30;;;2.10;;
20287;SDS011;10303;51.960;8.372;2023-07-31T08:42:54;4.90;;;2.77;;
20287;SDS011;10303;51.960;8.372;2023-07-31T08:45:27;3.63;;;2.53;;
20287;SDS011;10303;51.960;8.372;2023-07-31T08:47:55;3.50;;;2.53;;
20287;SDS011;10303;51.960;8.372;2023-07-31T08:50:22;2.13;;;1.87;;
20287;SDS011;10303;51.960;8.372;2023-07-31T08:52:49;2.40;;;1.80;;
20287;SDS011;10303;51.960;8.372;2023-07-31T08:55:17;3.00;;;2.20;;
20287;SDS011;10303;51.960;8.372;2023-07-31T08:57:50;4.97;;;2.33;;
20287;SDS011;10303;51.960;8.372;2023-07-31T09:00:20;1.87;;;1.77;;
20287;SDS011;10303;51.960;8.372;2023-07-31T09:03:02;1.50;;;1.40;;
20287;SDS011;10303;51.960;8.372;2023-07-31T09:05:35;3.47;;;2.20;;
20287;SDS011;10303;51.960;8.372;2023-07-31T09:08:05;4.03;;;2.67;;
20287;SDS011;10303;51.960;8.372;2023-07-31T09:10:34;2.47;;;1.97;;
20287;SDS011;10303;51.960;8.372;2023-07-31T09:13:00;2.97;;;2.00;;
20287;SDS011;10303;51.960;8.372;2023-07-31T09:15:29;1.87;;;1.77;;
20287;SDS011;10303;51.960;8.372;2023-07-31T09:18:01;2.17;;;1.67;;
20287;SDS011;10303;51.960;8.372;2023-07-31T09:20:30;2.00;;;1.80;;
20287;SDS011;10303;51.960;8.372;2023-07-31T09:23:04;2.30;;;1.73;;
20287;SDS011;10303;51.960;8.372;2023-07-31T09:25:36;3.80;;;2.20;;
20287;SDS011;10303;51.960;8.372;2023-07-31T09:28:04;1.43;;;1.20;;
20287;SDS011;10303;51.960;8.372;2023-07-31T09:30:43;5.03;;;1.67;;
20287;SDS011;10303;51.960;8.372;2023-07-31T09:33:14;2.30;;;1.37;;
20287;SDS011;10303;51.960;8.372;2023-07-31T09:35:41;3.00;;;2.10;;
20287;SDS011;10303;51.960;8.372;2023-07-31T09:38:11;3.53;;;1.40;;
20287;SDS011;10303;51.960;8.372;2023-07-31T09:40:40;1.97;;;1.73;;
20287;SDS011;10303;51.960;8.372;2023-07-31T09:43:09;1.63;;;1.53;;
20287;SDS011;10303;51.960;8.372;2023-07-31T09:45:39;1.90;;;1.80;;
20287;SDS011;10303;51.960;8.372;2023-07-31T09:48:07;3.30;;;1.63;;
20287;SDS011;10303;51.960;8.372;2023-07-31T09:50:41;1.70;;;1.48;;
20287;SDS011;10303;51.960;8.372;2023-07-31T09:53:12;2.03;;;1.77;;
20287;SDS011;10303;51.960;8.372;2023-07-31T09:55:40;2.85;;;1.52;;
20287;SDS011;10303;51.960;8.372;2023-07-31T09:58:10;2.92;;;1.42;;
20287;SDS011;10303;51.960;8.372;2023-07-31T10:00:38;1.63;;;1.17;;
20287;SDS011;10303;51.960;8.372;2023-07-31T10:03:05;1.20;;;1.10;;
20287;SDS011;10303;51.960;8.372;2023-07-31T10:05:35;1.65;;;1.25;;
20287;SDS011;10303;51.960;8.372;2023-07-31T10:08:21;3.60;;;1.63;;
20287;SDS011;10303;51.960;8.372;2023-07-31T10:10:55;1.80;;;1.20;;
20287;SDS011;10303;51.960;8.372;2023-07-31T10:13:25;1.00;;;0.90;;
20287;SDS011;10303;51.960;8.372;2023-07-31T10:15:54;1.73;;;1.17;;
20287;SDS011;10303;51.960;8.372;2023-07-31T10:18:27;1.30;;;1.20;;
20287;SDS011;10303;51.960;8.372;2023-07-31T10:20:54;1.47;;;1.37;;
20287;SDS011;10303;51.960;8.372;2023-07-31T10:23:22;1.42;;;1.30;;
20287;SDS011;10303;51.960;8.372;2023-07-31T10:25:50;1.83;;;1.42;;
20287;SDS011;10303;51.960;8.372;2023-07-31T10:28:19;1.30;;;1.10;;
20287;SDS011;10303;51.960;8.372;2023-07-31T10:30:46;1.37;;;1.10;;
20287;SDS011;10303;51.960;8.372;2023-07-31T10:33:14;0.70;;;0.63;;
20287;SDS011;10303;51.960;8.372;2023-07-31T10:35:43;0.82;;;0.70;;
20287;SDS011;10303;51.960;8.372;2023-07-31T10:38:10;1.08;;;0.80;;
20287;SDS011;10303;51.960;8.372;2023-07-31T10:40:37;0.60;;;0.60;;
20287;SDS011;10303;51.960;8.372;2023-07-31T10:43:03;0.80;;;0.77;;
20287;SDS011;10303;51.960;8.372;2023-07-31T10:45:37;0.60;;;0.60;;
20287;SDS011;10303;51.960;8.372;2023-07-31T10:48:14;2.67;;;0.60;;
20287;SDS011;10303;51.960;8.372;2023-07-31T10:53:30;1.10;;;0.70;;
20287;SDS011;10303;51.960;8.372;2023-07-31T10:55:58;0.85;;;0.52;;
20287;SDS011;10303;51.960;8.372;2023-07-31T10:58:36;0.70;;;0.70;;
20287;SDS011;10303;51.960;8.372;2023-07-31T11:01:03;0.80;;;0.70;;
20287;SDS011;10303;51.960;8.372;2023-07-31T11:03:45;0.55;;;0.55;;
20287;SDS011;10303;51.960;8.372;2023-07-31T11:06:17;0.60;;;0.60;;
20287;SDS011;10303;51.960;8.372;2023-07-31T11:08:45;0.82;;;0.82;;
20287;SDS011;10303;51.960;8.372;2023-07-31T11:11:14;0.70;;;0.70;;
20287;SDS011;10303;51.960;8.372;2023-07-31T11:13:44;0.73;;;0.70;;
20287;SDS011;10303;51.960;8.372;2023-07-31T11:16:15;0.93;;;0.70;;
20287;SDS011;10303;51.960;8.372;2023-07-31T11:18:44;0.80;;;0.63;;
20287;SDS011;10303;51.960;8.372;2023-07-31T11:21:12;2.63;;;0.77;;
20287;SDS011;10303;51.960;8.372;2023-07-31T11:23:47;0.75;;;0.70;;
20287;SDS011;10303;51.960;8.372;2023-07-31T11:26:15;0.80;;;0.80;;
20287;SDS011;10303;51.960;8.372;2023-07-31T11:28:42;0.80;;;0.68;;
20287;SDS011;10303;51.960;8.372;2023-07-31T11:31:11;0.70;;;0.70;;
20287;SDS011;10303;51.960;8.372;2023-07-31T11:33:37;1.20;;;0.77;;
20287;SDS011;10303;51.960;8.372;2023-07-31T11:36:03;0.80;;;0.80;;
20287;SDS011;10303;51.960;8.372;2023-07-31T11:38:33;0.93;;;0.82;;
20287;SDS011;10303;51.960;8.372;2023-07-31T11:41:01;1.83;;;1.05;;
20287;SDS011;10303;51.960;8.372;2023-07-31T11:43:30;0.77;;;0.60;;
20287;SDS011;10303;51.960;8.372;2023-07-31T11:45:57;0.93;;;0.80;;
20287;SDS011;10303;51.960;8.372;2023-07-31T11:48:28;0.63;;;0.60;;
20287;SDS011;10303;51.960;8.372;2023-07-31T11:50:59;0.70;;;0.70;;
20287;SDS011;10303;51.960;8.372;2023-07-31T11:54:10;1.65;;;1.02;;
20287;SDS011;10303;51.960;8.372;2023-07-31T11:56:21;2.75;;;0.70;;
20287;SDS011;10303;51.960;8.372;2023-07-31T11:58:50;0.68;;;0.68;;
20287;SDS011;10303;51.960;8.372;2023-07-31T12:01:28;0.60;;;0.60;;
20287;SDS011;10303;51.960;8.372;2023-07-31T12:03:55;1.20;;;0.90;;
20287;SDS011;10303;51.960;8.372;2023-07-31T12:06:32;1.13;;;0.57;;
20287;SDS011;10303;51.960;8.372;2023-07-31T12:09:04;1.00;;;0.70;;
20287;SDS011;10303;51.960;8.372;2023-07-31T12:11:31;0.70;;;0.70;;
20287;SDS011;10303;51.960;8.372;2023-07-31T12:14:20;0.65;;;0.65;;
20287;SDS011;10303;51.960;8.372;2023-07-31T12:17:01;0.60;;;0.60;;
20287;SDS011;10303;51.960;8.372;2023-07-31T12:19:30;0.70;;;0.70;;
20287;SDS011;10303;51.960;8.372;2023-07-31T12:21:58;0.60;;;0.60;;
20287;SDS011;10303;51.960;8.372;2023-07-31T12:24:28;0.95;;;0.60;;
20287;SDS011;10303;51.960;8.372;2023-07-31T12:26:54;0.52;;;0.52;;
20287;SDS011;10303;51.960;8.372;2023-07-31T12:29:20;0.45;;;0.45;;
20287;SDS011;10303;51.960;8.372;2023-07-31T12:31:46;0.40;;;0.40;;
20287;SDS011;10303;51.960;8.372;2023-07-31T12:34:16;0.70;;;0.60;;
20287;SDS011;10303;51.960;8.372;2023-07-31T12:36:43;0.77;;;0.70;;
20287;SDS011;10303;51.960;8.372;2023-07-31T12:39:10;0.57;;;0.52;;
20287;SDS011;10303;51.960;8.372;2023-07-31T12:41:38;0.50;;;0.50;;
20287;SDS011;10303;51.960;8.372;2023-07-31T12:44:04;0.73;;;0.73;;
20287;SDS011;10303;51.960;8.372;2023-07-31T12:46:30;0.75;;;0.75;;
20287;SDS011;10303;51.960;8.372;2023-07-31T12:48:56;0.82;;;0.82;;
20287;SDS011;10303;51.960;8.372;2023-07-31T12:51:22;1.75;;;1.65;;
20287;SDS011;10303;51.960;8.372;2023-07-31T12:53:50;2.28;;;2.17;;
20287;SDS011;10303;51.960;8.372;2023-07-31T12:56:16;1.65;;;1.55;;
20287;SDS011;10303;51.960;8.372;2023-07-31T12:58:43;2.63;;;2.28;;
20287;SDS011;10303;51.960;8.372;2023-07-31T13:01:08;2.45;;;2.13;;
20287;SDS011;10303;51.960;8.372;2023-07-31T13:03:35;2.42;;;2.20;;
20287;SDS011;10303;51.960;8.372;2023-07-31T13:06:01;1.98;;;1.88;;
20287;SDS011;10303;51.960;8.372;2023-07-31T13:08:28;5.93;;;2.50;;
20287;SDS011;10303;51.960;8.372;2023-07-31T13:10:54;4.40;;;2.22;;
20287;SDS011;10303;51.960;8.372;2023-07-31T13:13:20;2.00;;;1.90;;
20287;SDS011;10303;51.960;8.372;2023-07-31T13:15:47;6.22;;;1.70;;
20287;SDS011;10303;51.960;8.372;2023-07-31T13:18:13;3.53;;;1.73;;
20287;SDS011;10303;51.960;8.372;2023-07-31T13:20:39;1.80;;;1.70;;
20287;SDS011;10303;51.960;8.372;2023-07-31T13:23:05;1.90;;;1.80;;
20287;SDS011;10303;51.960;8.372;2023-07-31T13:25:31;1.80;;;1.70;;
20287;SDS011;10303;51.960;8.372;2023-07-31T13:27:58;1.75;;;1.63;;
20287;SDS011;10303;51.960;8.372;2023-07-31T13:30:24;2.25;;;1.30;;
20287;SDS011;10303;51.960;8.372;2023-07-31T13:32:50;2.50;;;1.80;;
20287;SDS011;10303;51.960;8.372;2023-07-31T13:35:16;1.50;;;1.40;;
20287;SDS011;10303;51.960;8.372;2023-07-31T13:37:43;1.50;;;1.40;;
20287;SDS011;10303;51.960;8.372;2023-07-31T13:40:09;2.13;;;2.03;;
20287;SDS011;10303;51.960;8.372;2023-07-31T13:42:36;1.63;;;1.52;;
20287;SDS011;10303;51.960;8.372;2023-07-31T13:45:02;2.38;;;2.17;;
20287;SDS011;10303;51.960;8.372;2023-07-31T13:47:29;2.17;;;1.67;;
20287;SDS011;10303;51.960;8.372;2023-07-31T13:49:56;2.13;;;1.60;;
20287;SDS011;10303;51.960;8.372;2023-07-31T13:52:22;2.03;;;1.92;;
20287;SDS011;10303;51.960;8.372;2023-07-31T13:54:48;2.50;;;2.30;;
20287;SDS011;10303;51.960;8.372;2023-07-31T13:57:14;2.67;;;1.60;;
20287;SDS011;10303;51.960;8.372;2023-07-31T13:59:41;4.25;;;2.30;;
20287;SDS011;10303;51.960;8.372;2023-07-31T14:02:07;1.92;;;1.83;;
20287;SDS011;10303;51.960;8.372;2023-07-31T14:04:34;2.75;;;1.75;;
20287;SDS011;10303;51.960;8.372;2023-07-31T14:07:00;5.32;;;2.20;;
20287;SDS011;10303;51.960;8.372;2023-07-31T14:09:26;3.25;;;2.00;;
20287;SDS011;10303;51.960;8.372;2023-07-31T14:11:53;1.70;;;1.60;;
20287;SDS011;10303;51.960;8.372;2023-07-31T14:14:19;2.88;;;1.63;;
20287;SDS011;10303;51.960;8.372;2023-07-31T14:16:45;1.60;;;1.50;;
20287;SDS011;10303;51.960;8.372;2023-07-31T14:19:11;1.92;;;1.52;;
20287;SDS011;10303;51.960;8.372;2023-07-31T14:21:37;2.17;;;1.45;;
20287;SDS011;10303;51.960;8.372;2023-07-31T14:24:03;2.75;;;1.65;;
20287;SDS011;10303;51.960;8.372;2023-07-31T14:26:30;1.90;;;1.80;;
20287;SDS011;10303;51.960;8.372;2023-07-31T14:28:56;1.50;;;1.40;;
20287;SDS011;10303;51.960;8.372;2023-07-31T14:31:23;1.95;;;1.38;;
20287;SDS011;10303;51.960;8.372;2023-07-31T14:33:50;3.05;;;1.60;;
20287;SDS011;10303;51.960;8.372;2023-07-31T14:36:16;1.75;;;1.65;;
20287;SDS011;10303;51.960;8.372;2023-07-31T14:38:42;1.73;;;1.40;;
20287;SDS011;10303;51.960;8.372;2023-07-31T14:41:08;1.63;;;1.52;;
20287;SDS011;10303;51.960;8.372;2023-07-31T14:43:35;1.75;;;1.35;;
20287;SDS011;10303;51.960;8.372;2023-07-31T14:46:02;2.05;;;1.42;;
20287;SDS011;10303;51.960;8.372;2023-07-31T14:48:28;1.33;;;1.23;;
20287;SDS011;10303;51.960;8.372;2023-07-31T14:50:55;1.40;;;1.30;;
20287;SDS011;10303;51.960;8.372;2023-07-31T14:55:50;1.20;;;1.10;;
20287;SDS011;10303;51.960;8.372;2023-07-31T14:58:16;1.52;;;1.00;;
20287;SDS011;10303;51.960;8.372;2023-07-31T15:00:43;1.10;;;0.90;;
20287;SDS011;10303;51.960;8.372;2023-07-31T15:03:10;1.17;;;1.08;;